KHIE/HIE METAR and TAF weather

Enter ICAO airport designator
Station Type Date Time Source
KHIE METAR 2019/06/17 15:52 UTC NOAA

KHIE 171552Z AUTO 29008G14KT 260V340 10SM SCT046 20/08 A2998 RMK AO2 SLP154 T02000083


Station Type Date Time Source
KHIE Decoded METAR 2019/06/17 15:52 UTC NOAA

MT WASHINGTON REGIONAL AIRPORT , NH, United States (KHIE) 44-22N 71-33W 318M
Jun 17, 2019 - 11:52 AM EDT / 2019.06.17 1552 UTC
Wind: from the WNW (290 degrees) at 9 MPH (8 KT) gusting to 16 MPH (14 KT) (direction variable):0
Visibility: 10 mile(s):0
Sky conditions: partly cloudy
Temperature: 68.0 F (20.0 C)
Dew Point: 46.9 F (8.3 C)
Relative Humidity: 46%
Pressure (altimeter): 29.98 in. Hg (1015 hPa)
ob: KHIE 171552Z AUTO 29008G14KT 260V340 10SM SCT046 20/08 A2998 RMK AO2 SLP154 T02000083
cycle: 16

Station Type Date Time Source
KHIE TAF 2019/06/17 18:30 UTC NOAA

TAF KHIE 171727Z 1718/1818 VRB03KT P6SM FEW040
FM180000 00000KT P6SM SCT250

Example: see airport list